sensor_id;sensor_type;location;lat;lon;timestamp;P1;durP1;ratioP1;P2;durP2;ratioP2
78778;SDS011;68121;52.404;5.318;2023-08-21T00:01:19;3.45;;;1.23;;
78778;SDS011;68121;52.404;5.318;2023-08-21T00:03:45;7.13;;;1.67;;
78778;SDS011;68121;52.404;5.318;2023-08-21T00:06:11;3.03;;;1.60;;
78778;SDS011;68121;52.404;5.318;2023-08-21T00:08:37;3.63;;;1.48;;
78778;SDS011;68121;52.404;5.318;2023-08-21T00:11:03;3.00;;;1.63;;
78778;SDS011;68121;52.404;5.318;2023-08-21T00:13:29;3.78;;;1.67;;
78778;SDS011;68121;52.404;5.318;2023-08-21T00:15:55;5.25;;;1.48;;
78778;SDS011;68121;52.404;5.318;2023-08-21T00:18:22;3.83;;;1.55;;
78778;SDS011;68121;52.404;5.318;2023-08-21T00:20:48;3.97;;;1.40;;
78778;SDS011;68121;52.404;5.318;2023-08-21T00:23:14;3.85;;;1.60;;
78778;SDS011;68121;52.404;5.318;2023-08-21T00:25:40;3.22;;;1.70;;
78778;SDS011;68121;52.404;5.318;2023-08-21T00:28:10;4.57;;;1.63;;
78778;SDS011;68121;52.404;5.318;2023-08-21T00:30:37;5.43;;;1.52;;
78778;SDS011;68121;52.404;5.318;2023-08-21T00:33:04;4.30;;;1.90;;
78778;SDS011;68121;52.404;5.318;2023-08-21T00:35:30;5.88;;;2.10;;
78778;SDS011;68121;52.404;5.318;2023-08-21T00:37:56;1.98;;;1.23;;
78778;SDS011;68121;52.404;5.318;2023-08-21T00:40:22;3.55;;;1.67;;
78778;SDS011;68121;52.404;5.318;2023-08-21T00:42:48;2.90;;;1.88;;
78778;SDS011;68121;52.404;5.318;2023-08-21T00:45:14;3.67;;;1.52;;
78778;SDS011;68121;52.404;5.318;2023-08-21T00:47:41;2.90;;;1.70;;
78778;SDS011;68121;52.404;5.318;2023-08-21T00:50:08;4.22;;;1.70;;
78778;SDS011;68121;52.404;5.318;2023-08-21T00:52:38;4.75;;;1.80;;
78778;SDS011;68121;52.404;5.318;2023-08-21T00:55:08;2.67;;;1.98;;
78778;SDS011;68121;52.404;5.318;2023-08-21T00:57:35;5.38;;;2.05;;
78778;SDS011;68121;52.404;5.318;2023-08-21T01:00:02;6.50;;;1.70;;
78778;SDS011;68121;52.404;5.318;2023-08-21T01:02:30;4.63;;;1.83;;
78778;SDS011;68121;52.404;5.318;2023-08-21T01:04:56;3.88;;;1.90;;
78778;SDS011;68121;52.404;5.318;2023-08-21T01:07:22;7.45;;;2.90;;
78778;SDS011;68121;52.404;5.318;2023-08-21T01:09:54;6.18;;;2.28;;
78778;SDS011;68121;52.404;5.318;2023-08-21T01:12:47;3.97;;;1.95;;
78778;SDS011;68121;52.404;5.318;2023-08-21T01:15:18;2.15;;;1.50;;
78778;SDS011;68121;52.404;5.318;2023-08-21T01:17:44;4.32;;;2.05;;
78778;SDS011;68121;52.404;5.318;2023-08-21T01:20:12;5.93;;;2.40;;
78778;SDS011;68121;52.404;5.318;2023-08-21T01:22:40;4.25;;;1.90;;
78778;SDS011;68121;52.404;5.318;2023-08-21T01:25:11;3.70;;;1.55;;
78778;SDS011;68121;52.404;5.318;2023-08-21T01:27:38;4.55;;;2.00;;
78778;SDS011;68121;52.404;5.318;2023-08-21T01:30:06;4.47;;;2.35;;
78778;SDS011;68121;52.404;5.318;2023-08-21T01:35:09;7.22;;;2.17;;
78778;SDS011;68121;52.404;5.318;2023-08-21T01:37:37;5.18;;;1.77;;
78778;SDS011;68121;52.404;5.318;2023-08-21T01:40:04;3.67;;;1.77;;
78778;SDS011;68121;52.404;5.318;2023-08-21T01:42:30;3.83;;;2.03;;
78778;SDS011;68121;52.404;5.318;2023-08-21T01:44:57;6.22;;;1.98;;
78778;SDS011;68121;52.404;5.318;2023-08-21T01:47:23;3.28;;;1.92;;
78778;SDS011;68121;52.404;5.318;2023-08-21T01:49:49;6.53;;;1.95;;
78778;SDS011;68121;52.404;5.318;2023-08-21T01:52:18;4.55;;;2.00;;
78778;SDS011;68121;52.404;5.318;2023-08-21T01:54:44;4.68;;;2.05;;
78778;SDS011;68121;52.404;5.318;2023-08-21T01:57:13;2.17;;;1.35;;
78778;SDS011;68121;52.404;5.318;2023-08-21T01:59:39;4.72;;;2.22;;
78778;SDS011;68121;52.404;5.318;2023-08-21T02:02:05;4.70;;;1.83;;
78778;SDS011;68121;52.404;5.318;2023-08-21T02:04:31;3.25;;;1.70;;
78778;SDS011;68121;52.404;5.318;2023-08-21T02:06:57;4.35;;;2.05;;
78778;SDS011;68121;52.404;5.318;2023-08-21T02:09:24;3.05;;;1.83;;
78778;SDS011;68121;52.404;5.318;2023-08-21T02:11:50;3.80;;;1.45;;
78778;SDS011;68121;52.404;5.318;2023-08-21T02:14:16;3.38;;;1.65;;
78778;SDS011;68121;52.404;5.318;2023-08-21T02:16:42;5.32;;;1.77;;
78778;SDS011;68121;52.404;5.318;2023-08-21T02:19:08;4.03;;;1.92;;
78778;SDS011;68121;52.404;5.318;2023-08-21T02:21:34;1.92;;;1.40;;
78778;SDS011;68121;52.404;5.318;2023-08-21T02:24:02;2.90;;;1.65;;
78778;SDS011;68121;52.404;5.318;2023-08-21T02:26:28;2.42;;;1.55;;
78778;SDS011;68121;52.404;5.318;2023-08-21T02:28:54;2.75;;;1.83;;
78778;SDS011;68121;52.404;5.318;2023-08-21T02:31:20;4.00;;;2.10;;
78778;SDS011;68121;52.404;5.318;2023-08-21T02:33:46;5.25;;;1.77;;
78778;SDS011;68121;52.404;5.318;2023-08-21T02:36:12;4.03;;;1.85;;
78778;SDS011;68121;52.404;5.318;2023-08-21T02:38:38;4.07;;;1.55;;
78778;SDS011;68121;52.404;5.318;2023-08-21T02:41:04;4.75;;;1.75;;
78778;SDS011;68121;52.404;5.318;2023-08-21T02:43:30;2.15;;;1.70;;
78778;SDS011;68121;52.404;5.318;2023-08-21T02:45:57;2.42;;;1.80;;
78778;SDS011;68121;52.404;5.318;2023-08-21T02:48:23;3.72;;;1.65;;
78778;SDS011;68121;52.404;5.318;2023-08-21T02:50:49;3.67;;;1.67;;
78778;SDS011;68121;52.404;5.318;2023-08-21T02:53:15;2.38;;;1.48;;
78778;SDS011;68121;52.404;5.318;2023-08-21T02:55:41;6.25;;;2.00;;
78778;SDS011;68121;52.404;5.318;2023-08-21T02:58:07;4.72;;;1.60;;
78778;SDS011;68121;52.404;5.318;2023-08-21T03:00:34;2.83;;;1.63;;
78778;SDS011;68121;52.404;5.318;2023-08-21T03:03:01;1.65;;;1.15;;
78778;SDS011;68121;52.404;5.318;2023-08-21T03:05:27;4.55;;;1.42;;
78778;SDS011;68121;52.404;5.318;2023-08-21T03:07:53;4.13;;;1.60;;
78778;SDS011;68121;52.404;5.318;2023-08-21T03:10:19;4.47;;;1.88;;
78778;SDS011;68121;52.404;5.318;2023-08-21T03:12:46;4.65;;;1.63;;
78778;SDS011;68121;52.404;5.318;2023-08-21T03:15:12;3.38;;;1.63;;
78778;SDS011;68121;52.404;5.318;2023-08-21T03:17:38;2.53;;;1.55;;
78778;SDS011;68121;52.404;5.318;2023-08-21T03:20:04;3.17;;;1.35;;
78778;SDS011;68121;52.404;5.318;2023-08-21T03:22:30;3.22;;;1.30;;
78778;SDS011;68121;52.404;5.318;2023-08-21T03:24:59;4.13;;;1.27;;
78778;SDS011;68121;52.404;5.318;2023-08-21T03:27:25;3.35;;;1.58;;
78778;SDS011;68121;52.404;5.318;2023-08-21T03:29:52;4.28;;;1.63;;
78778;SDS011;68121;52.404;5.318;2023-08-21T03:32:18;5.63;;;1.60;;
78778;SDS011;68121;52.404;5.318;2023-08-21T03:34:44;3.63;;;1.08;;
78778;SDS011;68121;52.404;5.318;2023-08-21T03:37:10;2.35;;;1.20;;
78778;SDS011;68121;52.404;5.318;2023-08-21T03:39:36;3.25;;;1.38;;
78778;SDS011;68121;52.404;5.318;2023-08-21T03:42:02;2.58;;;1.70;;
78778;SDS011;68121;52.404;5.318;2023-08-21T03:44:29;3.35;;;1.10;;
78778;SDS011;68121;52.404;5.318;2023-08-21T03:46:55;5.55;;;1.63;;
78778;SDS011;68121;52.404;5.318;2023-08-21T03:49:21;6.18;;;2.15;;
78778;SDS011;68121;52.404;5.318;2023-08-21T03:51:47;2.03;;;1.40;;
78778;SDS011;68121;52.404;5.318;2023-08-21T03:54:13;3.38;;;1.23;;
78778;SDS011;68121;52.404;5.318;2023-08-21T03:56:39;2.28;;;1.40;;
78778;SDS011;68121;52.404;5.318;2023-08-21T03:59:05;1.80;;;1.35;;
78778;SDS011;68121;52.404;5.318;2023-08-21T04:01:31;1.63;;;1.23;;
78778;SDS011;68121;52.404;5.318;2023-08-21T04:03:57;2.78;;;1.25;;
78778;SDS011;68121;52.404;5.318;2023-08-21T04:06:23;2.90;;;1.27;;
78778;SDS011;68121;52.404;5.318;2023-08-21T04:08:49;3.17;;;1.38;;
78778;SDS011;68121;52.404;5.318;2023-08-21T04:11:15;3.08;;;1.33;;
78778;SDS011;68121;52.404;5.318;2023-08-21T04:13:42;3.17;;;1.98;;
78778;SDS011;68121;52.404;5.318;2023-08-21T04:16:08;7.90;;;1.75;;
78778;SDS011;68121;52.404;5.318;2023-08-21T04:18:36;2.72;;;1.67;;
78778;SDS011;68121;52.404;5.318;2023-08-21T04:21:04;2.92;;;1.65;;
78778;SDS011;68121;52.404;5.318;2023-08-21T04:23:30;4.47;;;1.88;;
78778;SDS011;68121;52.404;5.318;2023-08-21T04:26:02;4.15;;;2.15;;
78778;SDS011;68121;52.404;5.318;2023-08-21T04:28:30;2.22;;;1.65;;
78778;SDS011;68121;52.404;5.318;2023-08-21T04:30:56;3.90;;;2.60;;
78778;SDS011;68121;52.404;5.318;2023-08-21T04:33:24;7.65;;;2.90;;
78778;SDS011;68121;52.404;5.318;2023-08-21T04:35:51;10.50;;;3.35;;
78778;SDS011;68121;52.404;5.318;2023-08-21T04:38:17;4.88;;;2.85;;
78778;SDS011;68121;52.404;5.318;2023-08-21T04:40:43;6.18;;;2.95;;
78778;SDS011;68121;52.404;5.318;2023-08-21T04:43:09;3.38;;;2.53;;
78778;SDS011;68121;52.404;5.318;2023-08-21T04:45:36;4.88;;;2.38;;
78778;SDS011;68121;52.404;5.318;2023-08-21T04:48:04;4.70;;;2.53;;
78778;SDS011;68121;52.404;5.318;2023-08-21T04:50:30;5.90;;;2.45;;
78778;SDS011;68121;52.404;5.318;2023-08-21T04:52:56;5.35;;;2.45;;
78778;SDS011;68121;52.404;5.318;2023-08-21T04:55:22;4.50;;;3.10;;
78778;SDS011;68121;52.404;5.318;2023-08-21T04:57:49;3.58;;;2.70;;
78778;SDS011;68121;52.404;5.318;2023-08-21T05:00:15;4.28;;;2.92;;
78778;SDS011;68121;52.404;5.318;2023-08-21T05:02:42;4.93;;;2.65;;
78778;SDS011;68121;52.404;5.318;2023-08-21T05:05:08;8.23;;;2.70;;
78778;SDS011;68121;52.404;5.318;2023-08-21T05:07:34;4.93;;;3.00;;
78778;SDS011;68121;52.404;5.318;2023-08-21T05:10:01;5.53;;;2.85;;
78778;SDS011;68121;52.404;5.318;2023-08-21T05:12:28;4.00;;;2.85;;
78778;SDS011;68121;52.404;5.318;2023-08-21T05:14:54;4.45;;;2.90;;
78778;SDS011;68121;52.404;5.318;2023-08-21T05:17:20;5.05;;;2.58;;
78778;SDS011;68121;52.404;5.318;2023-08-21T05:19:46;7.35;;;3.22;;
78778;SDS011;68121;52.404;5.318;2023-08-21T05:22:12;6.97;;;3.20;;
78778;SDS011;68121;52.404;5.318;2023-08-21T05:24:38;5.40;;;3.60;;
78778;SDS011;68121;52.404;5.318;2023-08-21T05:27:04;5.57;;;3.63;;
78778;SDS011;68121;52.404;5.318;2023-08-21T05:29:30;5.35;;;3.40;;
78778;SDS011;68121;52.404;5.318;2023-08-21T05:31:56;8.45;;;3.53;;
78778;SDS011;68121;52.404;5.318;2023-08-21T05:34:22;7.55;;;3.50;;
78778;SDS011;68121;52.404;5.318;2023-08-21T05:36:48;6.57;;;3.45;;
78778;SDS011;68121;52.404;5.318;2023-08-21T05:39:14;5.50;;;3.20;;
78778;SDS011;68121;52.404;5.318;2023-08-21T05:41:40;3.92;;;2.75;;
78778;SDS011;68121;52.404;5.318;2023-08-21T05:44:06;7.38;;;3.20;;
78778;SDS011;68121;52.404;5.318;2023-08-21T05:46:32;5.82;;;3.03;;
78778;SDS011;68121;52.404;5.318;2023-08-21T05:48:58;9.48;;;3.60;;
78778;SDS011;68121;52.404;5.318;2023-08-21T05:51:24;5.85;;;2.90;;
78778;SDS011;68121;52.404;5.318;2023-08-21T05:53:51;5.03;;;3.17;;
78778;SDS011;68121;52.404;5.318;2023-08-21T05:56:17;5.28;;;3.15;;
78778;SDS011;68121;52.404;5.318;2023-08-21T05:58:43;5.40;;;3.65;;
78778;SDS011;68121;52.404;5.318;2023-08-21T06:01:09;5.30;;;3.08;;
78778;SDS011;68121;52.404;5.318;2023-08-21T06:03:35;9.43;;;3.55;;
78778;SDS011;68121;52.404;5.318;2023-08-21T06:06:01;6.50;;;3.38;;
78778;SDS011;68121;52.404;5.318;2023-08-21T06:08:27;6.60;;;3.08;;
78778;SDS011;68121;52.404;5.318;2023-08-21T06:10:53;7.90;;;2.97;;
78778;SDS011;68121;52.404;5.318;2023-08-21T06:13:19;6.47;;;3.47;;
78778;SDS011;68121;52.404;5.318;2023-08-21T06:15:46;7.35;;;3.33;;
78778;SDS011;68121;52.404;5.318;2023-08-21T06:18:12;5.80;;;3.60;;
78778;SDS011;68121;52.404;5.318;2023-08-21T06:20:38;5.25;;;3.10;;
78778;SDS011;68121;52.404;5.318;2023-08-21T06:23:04;6.35;;;3.20;;
78778;SDS011;68121;52.404;5.318;2023-08-21T06:25:32;4.15;;;3.55;;
78778;SDS011;68121;52.404;5.318;2023-08-21T06:27:58;8.02;;;3.80;;
78778;SDS011;68121;52.404;5.318;2023-08-21T06:30:24;11.65;;;3.83;;
78778;SDS011;68121;52.404;5.318;2023-08-21T06:32:54;8.40;;;4.25;;
78778;SDS011;68121;52.404;5.318;2023-08-21T06:35:20;5.28;;;3.38;;
78778;SDS011;68121;52.404;5.318;2023-08-21T06:37:46;7.47;;;3.40;;
78778;SDS011;68121;52.404;5.318;2023-08-21T06:40:13;7.32;;;3.70;;
78778;SDS011;68121;52.404;5.318;2023-08-21T06:42:39;9.07;;;3.67;;
78778;SDS011;68121;52.404;5.318;2023-08-21T06:45:05;6.05;;;4.07;;
78778;SDS011;68121;52.404;5.318;2023-08-21T06:47:31;11.15;;;3.60;;
78778;SDS011;68121;52.404;5.318;2023-08-21T06:49:58;10.63;;;3.30;;
78778;SDS011;68121;52.404;5.318;2023-08-21T06:52:26;8.13;;;3.15;;
78778;SDS011;68121;52.404;5.318;2023-08-21T06:54:52;5.90;;;3.53;;
78778;SDS011;68121;52.404;5.318;2023-08-21T06:57:18;5.18;;;2.97;;
78778;SDS011;68121;52.404;5.318;2023-08-21T06:59:44;6.03;;;3.10;;
78778;SDS011;68121;52.404;5.318;2023-08-21T07:02:10;9.25;;;3.22;;
78778;SDS011;68121;52.404;5.318;2023-08-21T07:04:36;4.80;;;2.85;;
78778;SDS011;68121;52.404;5.318;2023-08-21T07:07:02;5.97;;;2.95;;
78778;SDS011;68121;52.404;5.318;2023-08-21T07:09:28;9.25;;;3.10;;
78778;SDS011;68121;52.404;5.318;2023-08-21T07:11:54;7.43;;;2.60;;
78778;SDS011;68121;52.404;5.318;2023-08-21T07:14:20;5.35;;;2.85;;
78778;SDS011;68121;52.404;5.318;2023-08-21T07:16:46;5.32;;;2.85;;
78778;SDS011;68121;52.404;5.318;2023-08-21T07:19:13;7.25;;;3.00;;
78778;SDS011;68121;52.404;5.318;2023-08-21T07:21:39;6.45;;;2.55;;
78778;SDS011;68121;52.404;5.318;2023-08-21T07:24:05;7.50;;;2.95;;
78778;SDS011;68121;52.404;5.318;2023-08-21T07:26:31;7.25;;;3.05;;
78778;SDS011;68121;52.404;5.318;2023-08-21T07:28:57;6.72;;;2.03;;
78778;SDS011;68121;52.404;5.318;2023-08-21T07:31:23;5.82;;;2.17;;
78778;SDS011;68121;52.404;5.318;2023-08-21T07:33:49;6.13;;;2.30;;
78778;SDS011;68121;52.404;5.318;2023-08-21T07:36:15;6.68;;;2.13;;
78778;SDS011;68121;52.404;5.318;2023-08-21T07:38:44;4.00;;;1.80;;
78778;SDS011;68121;52.404;5.318;2023-08-21T07:41:11;6.57;;;2.55;;
78778;SDS011;68121;52.404;5.318;2023-08-21T07:43:39;3.67;;;2.15;;
78778;SDS011;68121;52.404;5.318;2023-08-21T07:46:07;3.80;;;1.10;;
78778;SDS011;68121;52.404;5.318;2023-08-21T07:48:44;6.07;;;1.33;;
78778;SDS011;68121;52.404;5.318;2023-08-21T07:51:10;2.13;;;1.10;;
78778;SDS011;68121;52.404;5.318;2023-08-21T07:53:37;4.03;;;1.13;;
78778;SDS011;68121;52.404;5.318;2023-08-21T07:56:03;6.00;;;1.27;;
78778;SDS011;68121;52.404;5.318;2023-08-21T07:58:30;3.78;;;1.10;;
78778;SDS011;68121;52.404;5.318;2023-08-21T08:00:57;5.47;;;1.52;;
78778;SDS011;68121;52.404;5.318;2023-08-21T08:03:23;3.67;;;1.00;;
78778;SDS011;68121;52.404;5.318;2023-08-21T08:05:49;2.05;;;0.88;;
78778;SDS011;68121;52.404;5.318;2023-08-21T08:08:18;3.10;;;0.90;;
78778;SDS011;68121;52.404;5.318;2023-08-21T08:10:44;5.22;;;0.90;;
78778;SDS011;68121;52.404;5.318;2023-08-21T08:13:10;3.30;;;1.10;;
78778;SDS011;68121;52.404;5.318;2023-08-21T08:15:37;5.03;;;1.80;;
78778;SDS011;68121;52.404;5.318;2023-08-21T08:18:04;2.17;;;0.90;;
78778;SDS011;68121;52.404;5.318;2023-08-21T08:20:32;4.10;;;1.10;;
78778;SDS011;68121;52.404;5.318;2023-08-21T08:22:58;3.30;;;1.02;;
78778;SDS011;68121;52.404;5.318;2023-08-21T08:25:24;5.10;;;1.05;;
78778;SDS011;68121;52.404;5.318;2023-08-21T08:27:51;7.47;;;1.08;;
78778;SDS011;68121;52.404;5.318;2023-08-21T08:30:17;3.42;;;0.95;;
78778;SDS011;68121;52.404;5.318;2023-08-21T08:32:43;3.90;;;1.73;;
78778;SDS011;68121;52.404;5.318;2023-08-21T08:35:12;4.38;;;1.27;;
78778;SDS011;68121;52.404;5.318;2023-08-21T08:37:40;3.22;;;1.15;;
78778;SDS011;68121;52.404;5.318;2023-08-21T08:40:07;2.63;;;0.95;;
78778;SDS011;68121;52.404;5.318;2023-08-21T08:42:37;3.65;;;0.90;;
78778;SDS011;68121;52.404;5.318;2023-08-21T08:45:04;3.63;;;0.80;;
78778;SDS011;68121;52.404;5.318;2023-08-21T08:47:31;5.05;;;1.20;;
78778;SDS011;68121;52.404;5.318;2023-08-21T08:50:00;7.38;;;1.30;;
78778;SDS011;68121;52.404;5.318;2023-08-21T08:52:30;2.55;;;0.90;;
78778;SDS011;68121;52.404;5.318;2023-08-21T08:54:59;4.50;;;1.02;;
78778;SDS011;68121;52.404;5.318;2023-08-21T08:57:25;3.78;;;1.15;;
78778;SDS011;68121;52.404;5.318;2023-08-21T08:59:51;2.45;;;0.73;;
78778;SDS011;68121;52.404;5.318;2023-08-21T09:02:17;4.55;;;0.80;;
78778;SDS011;68121;52.404;5.318;2023-08-21T09:04:43;7.55;;;1.35;;
78778;SDS011;68121;52.404;5.318;2023-08-21T09:07:10;1.70;;;1.05;;
78778;SDS011;68121;52.404;5.318;2023-08-21T09:09:37;5.47;;;1.00;;
78778;SDS011;68121;52.404;5.318;2023-08-21T09:12:10;2.40;;;0.90;;
78778;SDS011;68121;52.404;5.318;2023-08-21T09:14:42;4.47;;;1.23;;
78778;SDS011;68121;52.404;5.318;2023-08-21T09:17:09;4.18;;;0.90;;
78778;SDS011;68121;52.404;5.318;2023-08-21T09:19:35;4.88;;;1.10;;
78778;SDS011;68121;52.404;5.318;2023-08-21T09:22:20;2.17;;;0.90;;
78778;SDS011;68121;52.404;5.318;2023-08-21T09:25:03;2.28;;;0.98;;
78778;SDS011;68121;52.404;5.318;2023-08-21T09:27:39;3.70;;;0.95;;
78778;SDS011;68121;52.404;5.318;2023-08-21T09:30:06;3.40;;;1.00;;
78778;SDS011;68121;52.404;5.318;2023-08-21T09:32:53;2.65;;;0.88;;
78778;SDS011;68121;52.404;5.318;2023-08-21T09:35:21;3.40;;;0.90;;
78778;SDS011;68121;52.404;5.318;2023-08-21T09:37:48;3.47;;;0.90;;
78778;SDS011;68121;52.404;5.318;2023-08-21T09:40:15;3.63;;;1.08;;
78778;SDS011;68121;52.404;5.318;2023-08-21T09:42:41;2.83;;;0.80;;
78778;SDS011;68121;52.404;5.318;2023-08-21T09:45:07;1.10;;;0.80;;
78778;SDS011;68121;52.404;5.318;2023-08-21T09:47:35;2.38;;;0.90;;
78778;SDS011;68121;52.404;5.318;2023-08-21T09:50:04;2.42;;;0.70;;
78778;SDS011;68121;52.404;5.318;2023-08-21T09:52:31;2.85;;;0.88;;
78778;SDS011;68121;52.404;5.318;2023-08-21T09:54:57;2.70;;;0.70;;
78778;SDS011;68121;52.404;5.318;2023-08-21T09:57:24;1.80;;;0.80;;
78778;SDS011;68121;52.404;5.318;2023-08-21T09:59:53;2.88;;;0.90;;
78778;SDS011;68121;52.404;5.318;2023-08-21T10:02:22;3.00;;;0.90;;
78778;SDS011;68121;52.404;5.318;2023-08-21T10:04:50;3.05;;;0.70;;
78778;SDS011;68121;52.404;5.318;2023-08-21T10:07:21;5.13;;;0.93;;
78778;SDS011;68121;52.404;5.318;2023-08-21T10:09:52;3.38;;;1.00;;
78778;SDS011;68121;52.404;5.318;2023-08-21T10:12:20;3.17;;;0.88;;
78778;SDS011;68121;52.404;5.318;2023-08-21T10:14:47;5.30;;;1.42;;
78778;SDS011;68121;52.404;5.318;2023-08-21T10:17:13;2.85;;;0.80;;
78778;SDS011;68121;52.404;5.318;2023-08-21T10:19:40;5.03;;;1.20;;
78778;SDS011;68121;52.404;5.318;2023-08-21T10:22:06;3.08;;;1.10;;
78778;SDS011;68121;52.404;5.318;2023-08-21T10:24:33;6.85;;;1.23;;
78778;SDS011;68121;52.404;5.318;2023-08-21T10:27:06;8.15;;;1.63;;
78778;SDS011;68121;52.404;5.318;2023-08-21T10:29:33;4.05;;;1.50;;
78778;SDS011;68121;52.404;5.318;2023-08-21T10:32:00;4.43;;;2.40;;
78778;SDS011;68121;52.404;5.318;2023-08-21T10:34:32;8.35;;;1.95;;
78778;SDS011;68121;52.404;5.318;2023-08-21T10:39:26;7.95;;;1.85;;
78778;SDS011;68121;52.404;5.318;2023-08-21T10:41:58;4.60;;;1.90;;
78778;SDS011;68121;52.404;5.318;2023-08-21T10:47:17;4.78;;;1.17;;
78778;SDS011;68121;52.404;5.318;2023-08-21T10:49:48;8.13;;;1.35;;
78778;SDS011;68121;52.404;5.318;2023-08-21T10:52:28;5.82;;;1.30;;
78778;SDS011;68121;52.404;5.318;2023-08-21T10:54:56;3.83;;;1.23;;
78778;SDS011;68121;52.404;5.318;2023-08-21T10:57:25;2.15;;;0.68;;
78778;SDS011;68121;52.404;5.318;2023-08-21T10:59:56;6.68;;;0.93;;
78778;SDS011;68121;52.404;5.318;2023-08-21T11:02:26;4.28;;;1.02;;
78778;SDS011;68121;52.404;5.318;2023-08-21T11:04:57;3.05;;;1.23;;
78778;SDS011;68121;52.404;5.318;2023-08-21T11:07:24;5.93;;;1.15;;
78778;SDS011;68121;52.404;5.318;2023-08-21T11:09:51;2.45;;;1.02;;
78778;SDS011;68121;52.404;5.318;2023-08-21T11:12:18;4.68;;;1.05;;
78778;SDS011;68121;52.404;5.318;2023-08-21T11:14:46;3.90;;;0.98;;
78778;SDS011;68121;52.404;5.318;2023-08-21T11:17:13;2.75;;;1.30;;
78778;SDS011;68121;52.404;5.318;2023-08-21T11:19:40;4.00;;;1.13;;
78778;SDS011;68121;52.404;5.318;2023-08-21T11:22:07;2.92;;;1.30;;
78778;SDS011;68121;52.404;5.318;2023-08-21T11:27:09;3.53;;;1.08;;
78778;SDS011;68121;52.404;5.318;2023-08-21T11:29:47;2.47;;;0.95;;
78778;SDS011;68121;52.404;5.318;2023-08-21T11:32:16;2.40;;;1.00;;
78778;SDS011;68121;52.404;5.318;2023-08-21T11:34:43;3.67;;;1.27;;
78778;SDS011;68121;52.404;5.318;2023-08-21T11:37:22;5.10;;;0.80;;
78778;SDS011;68121;52.404;5.318;2023-08-21T11:39:51;3.50;;;1.05;;
78778;SDS011;68121;52.404;5.318;2023-08-21T11:42:25;5.53;;;0.90;;
78778;SDS011;68121;52.404;5.318;2023-08-21T11:44:56;1.55;;;0.68;;
78778;SDS011;68121;52.404;5.318;2023-08-21T11:47:22;4.20;;;0.70;;
78778;SDS011;68121;52.404;5.318;2023-08-21T11:49:49;4.38;;;1.00;;
78778;SDS011;68121;52.404;5.318;2023-08-21T11:52:20;2.50;;;0.70;;
78778;SDS011;68121;52.404;5.318;2023-08-21T11:54:48;2.95;;;0.70;;
78778;SDS011;68121;52.404;5.318;2023-08-21T11:57:16;2.83;;;0.93;;
78778;SDS011;68121;52.404;5.318;2023-08-21T11:59:43;2.42;;;0.90;;
78778;SDS011;68121;52.404;5.318;2023-08-21T12:04:56;3.50;;;0.95;;
78778;SDS011;68121;52.404;5.318;2023-08-21T12:07:27;3.58;;;0.82;;
78778;SDS011;68121;52.404;5.318;2023-08-21T12:09:54;2.20;;;0.65;;
78778;SDS011;68121;52.404;5.318;2023-08-21T12:12:20;3.10;;;0.73;;
78778;SDS011;68121;52.404;5.318;2023-08-21T12:14:46;2.35;;;0.47;;
78778;SDS011;68121;52.404;5.318;2023-08-21T12:17:12;3.50;;;0.63;;
78778;SDS011;68121;52.404;5.318;2023-08-21T12:19:38;2.08;;;0.70;;
78778;SDS011;68121;52.404;5.318;2023-08-21T12:22:04;2.13;;;0.60;;
78778;SDS011;68121;52.404;5.318;2023-08-21T12:24:31;3.03;;;0.85;;
78778;SDS011;68121;52.404;5.318;2023-08-21T12:26:57;2.08;;;0.73;;
78778;SDS011;68121;52.404;5.318;2023-08-21T12:29:23;3.42;;;0.93;;
78778;SDS011;68121;52.404;5.318;2023-08-21T12:31:49;2.63;;;0.70;;
78778;SDS011;68121;52.404;5.318;2023-08-21T12:34:15;4.65;;;0.80;;
78778;SDS011;68121;52.404;5.318;2023-08-21T12:36:41;2.22;;;0.77;;
78778;SDS011;68121;52.404;5.318;2023-08-21T12:39:07;2.47;;;1.23;;
78778;SDS011;68121;52.404;5.318;2023-08-21T12:41:34;2.45;;;0.77;;
78778;SDS011;68121;52.404;5.318;2023-08-21T12:44:00;6.55;;;0.85;;
78778;SDS011;68121;52.404;5.318;2023-08-21T12:46:28;3.50;;;0.90;;
78778;SDS011;68121;52.404;5.318;2023-08-21T12:48:55;2.95;;;0.70;;
78778;SDS011;68121;52.404;5.318;2023-08-21T12:51:22;2.78;;;1.17;;
78778;SDS011;68121;52.404;5.318;2023-08-21T12:53:48;3.42;;;1.33;;
78778;SDS011;68121;52.404;5.318;2023-08-21T12:56:14;1.58;;;0.70;;
78778;SDS011;68121;52.404;5.318;2023-08-21T12:58:40;2.97;;;0.80;;
78778;SDS011;68121;52.404;5.318;2023-08-21T13:01:06;3.05;;;0.80;;
78778;SDS011;68121;52.404;5.318;2023-08-21T13:03:33;2.35;;;0.60;;
78778;SDS011;68121;52.404;5.318;2023-08-21T13:05:59;2.70;;;0.70;;
78778;SDS011;68121;52.404;5.318;2023-08-21T13:08:25;3.80;;;0.80;;
78778;SDS011;68121;52.404;5.318;2023-08-21T13:10:52;5.68;;;0.60;;
78778;SDS011;68121;52.404;5.318;2023-08-21T13:13:18;1.55;;;0.60;;
78778;SDS011;68121;52.404;5.318;2023-08-21T13:15:44;2.03;;;0.70;;
78778;SDS011;68121;52.404;5.318;2023-08-21T13:18:12;3.42;;;0.85;;
78778;SDS011;68121;52.404;5.318;2023-08-21T13:20:41;3.75;;;0.90;;
78778;SDS011;68121;52.404;5.318;2023-08-21T13:23:07;3.08;;;0.80;;
78778;SDS011;68121;52.404;5.318;2023-08-21T13:25:33;3.28;;;0.82;;
78778;SDS011;68121;52.404;5.318;2023-08-21T13:28:00;4.15;;;0.80;;
78778;SDS011;68121;52.404;5.318;2023-08-21T13:30:27;2.38;;;1.00;;
78778;SDS011;68121;52.404;5.318;2023-08-21T13:32:53;1.23;;;0.52;;
78778;SDS011;68121;52.404;5.318;2023-08-21T13:35:19;4.07;;;0.90;;
78778;SDS011;68121;52.404;5.318;2023-08-21T13:37:48;1.30;;;0.55;;
78778;SDS011;68121;52.404;5.318;2023-08-21T13:40:15;3.28;;;0.80;;
78778;SDS011;68121;52.404;5.318;2023-08-21T13:42:42;1.98;;;0.77;;
78778;SDS011;68121;52.404;5.318;2023-08-21T13:45:10;2.90;;;0.93;;
78778;SDS011;68121;52.404;5.318;2023-08-21T13:47:41;2.78;;;0.82;;
78778;SDS011;68121;52.404;5.318;2023-08-21T13:50:13;5.03;;;1.17;;
78778;SDS011;68121;52.404;5.318;2023-08-21T13:52:40;3.80;;;0.93;;
78778;SDS011;68121;52.404;5.318;2023-08-21T13:55:07;4.95;;;0.70;;
78778;SDS011;68121;52.404;5.318;2023-08-21T13:57:34;2.67;;;0.77;;
78778;SDS011;68121;52.404;5.318;2023-08-21T14:00:02;4.05;;;0.90;;
78778;SDS011;68121;52.404;5.318;2023-08-21T14:02:36;3.33;;;0.70;;
78778;SDS011;68121;52.404;5.318;2023-08-21T14:05:02;1.70;;;0.88;;
78778;SDS011;68121;52.404;5.318;2023-08-21T14:07:30;7.20;;;1.42;;
78778;SDS011;68121;52.404;5.318;2023-08-21T14:09:57;4.63;;;0.80;;
78778;SDS011;68121;52.404;5.318;2023-08-21T14:12:23;2.63;;;0.60;;
78778;SDS011;68121;52.404;5.318;2023-08-21T14:14:49;2.33;;;0.70;;
78778;SDS011;68121;52.404;5.318;2023-08-21T14:17:16;1.80;;;0.82;;
78778;SDS011;68121;52.404;5.318;2023-08-21T14:19:42;2.92;;;0.73;;
78778;SDS011;68121;52.404;5.318;2023-08-21T14:22:08;2.47;;;1.27;;
78778;SDS011;68121;52.404;5.318;2023-08-21T14:24:34;1.85;;;0.90;;
78778;SDS011;68121;52.404;5.318;2023-08-21T14:27:00;1.60;;;0.60;;
78778;SDS011;68121;52.404;5.318;2023-08-21T14:29:26;2.55;;;0.70;;
78778;SDS011;68121;52.404;5.318;2023-08-21T14:31:52;2.70;;;0.60;;
78778;SDS011;68121;52.404;5.318;2023-08-21T14:34:22;2.97;;;1.15;;
78778;SDS011;68121;52.404;5.318;2023-08-21T14:36:48;2.03;;;0.68;;
78778;SDS011;68121;52.404;5.318;2023-08-21T14:39:15;3.70;;;0.90;;
78778;SDS011;68121;52.404;5.318;2023-08-21T14:41:42;3.08;;;1.63;;
78778;SDS011;68121;52.404;5.318;2023-08-21T14:44:08;3.85;;;0.90;;
78778;SDS011;68121;52.404;5.318;2023-08-21T14:46:34;2.33;;;0.80;;
78778;SDS011;68121;52.404;5.318;2023-08-21T14:49:00;1.10;;;0.60;;
78778;SDS011;68121;52.404;5.318;2023-08-21T14:51:27;1.15;;;0.68;;
78778;SDS011;68121;52.404;5.318;2023-08-21T14:53:53;2.40;;;0.65;;
78778;SDS011;68121;52.404;5.318;2023-08-21T14:56:22;2.63;;;1.00;;
78778;SDS011;68121;52.404;5.318;2023-08-21T14:58:48;1.38;;;0.70;;
78778;SDS011;68121;52.404;5.318;2023-08-21T15:01:14;2.15;;;0.90;;